sensor_id;sensor_type;location;lat;lon;timestamp;P1;durP1;ratioP1;P2;durP2;ratioP2
24383;SDS011;12504;52.870;8.798;2023-06-24T00:01:25;15.82;;;9.50;;
24383;SDS011;12504;52.870;8.798;2023-06-24T00:03:51;15.13;;;10.63;;
24383;SDS011;12504;52.870;8.798;2023-06-24T00:06:18;15.27;;;10.38;;
24383;SDS011;12504;52.870;8.798;2023-06-24T00:08:45;16.80;;;10.48;;
24383;SDS011;12504;52.870;8.798;2023-06-24T00:11:11;16.70;;;10.48;;
24383;SDS011;12504;52.870;8.798;2023-06-24T00:13:38;15.00;;;9.80;;
24383;SDS011;12504;52.870;8.798;2023-06-24T00:16:04;14.38;;;9.98;;
24383;SDS011;12504;52.870;8.798;2023-06-24T00:18:31;14.60;;;9.77;;
24383;SDS011;12504;52.870;8.798;2023-06-24T00:20:58;16.80;;;11.30;;
24383;SDS011;12504;52.870;8.798;2023-06-24T00:23:23;15.90;;;9.27;;
24383;SDS011;12504;52.870;8.798;2023-06-24T00:25:52;16.67;;;10.65;;
24383;SDS011;12504;52.870;8.798;2023-06-24T00:28:19;17.00;;;9.90;;
24383;SDS011;12504;52.870;8.798;2023-06-24T00:30:45;17.83;;;10.48;;
24383;SDS011;12504;52.870;8.798;2023-06-24T00:33:11;17.13;;;10.95;;
24383;SDS011;12504;52.870;8.798;2023-06-24T00:35:38;21.20;;;11.85;;
24383;SDS011;12504;52.870;8.798;2023-06-24T00:38:04;18.10;;;10.40;;
24383;SDS011;12504;52.870;8.798;2023-06-24T00:40:32;19.70;;;10.52;;
24383;SDS011;12504;52.870;8.798;2023-06-24T00:42:58;17.45;;;11.18;;
24383;SDS011;12504;52.870;8.798;2023-06-24T00:45:26;15.30;;;9.63;;
24383;SDS011;12504;52.870;8.798;2023-06-24T00:47:53;15.57;;;10.55;;
24383;SDS011;12504;52.870;8.798;2023-06-24T00:50:22;17.95;;;12.00;;
24383;SDS011;12504;52.870;8.798;2023-06-24T00:52:47;20.40;;;12.18;;
24383;SDS011;12504;52.870;8.798;2023-06-24T00:55:15;19.90;;;11.80;;
24383;SDS011;12504;52.870;8.798;2023-06-24T00:57:43;20.23;;;11.10;;
24383;SDS011;12504;52.870;8.798;2023-06-24T01:00:10;24.63;;;12.57;;
24383;SDS011;12504;52.870;8.798;2023-06-24T01:02:42;22.33;;;13.07;;
24383;SDS011;12504;52.870;8.798;2023-06-24T01:05:08;21.45;;;12.40;;
24383;SDS011;12504;52.870;8.798;2023-06-24T01:07:37;18.50;;;10.27;;
24383;SDS011;12504;52.870;8.798;2023-06-24T01:10:04;18.83;;;12.02;;
24383;SDS011;12504;52.870;8.798;2023-06-24T01:12:37;18.55;;;11.05;;
24383;SDS011;12504;52.870;8.798;2023-06-24T01:15:04;17.67;;;11.75;;
24383;SDS011;12504;52.870;8.798;2023-06-24T01:20:23;21.48;;;12.10;;
24383;SDS011;12504;52.870;8.798;2023-06-24T01:26:06;19.55;;;11.65;;
24383;SDS011;12504;52.870;8.798;2023-06-24T01:34:24;23.63;;;13.73;;
24383;SDS011;12504;52.870;8.798;2023-06-24T01:37:05;24.83;;;12.32;;
24383;SDS011;12504;52.870;8.798;2023-06-24T01:39:46;20.40;;;13.25;;
24383;SDS011;12504;52.870;8.798;2023-06-24T01:42:22;22.98;;;13.27;;
24383;SDS011;12504;52.870;8.798;2023-06-24T01:44:48;26.00;;;14.88;;
24383;SDS011;12504;52.870;8.798;2023-06-24T01:47:25;20.13;;;12.93;;
24383;SDS011;12504;52.870;8.798;2023-06-24T01:49:54;21.02;;;12.82;;
24383;SDS011;12504;52.870;8.798;2023-06-24T01:52:24;21.48;;;13.15;;
24383;SDS011;12504;52.870;8.798;2023-06-24T01:54:54;21.02;;;12.75;;
24383;SDS011;12504;52.870;8.798;2023-06-24T01:57:20;21.75;;;13.30;;
24383;SDS011;12504;52.870;8.798;2023-06-24T01:59:48;22.45;;;13.25;;
24383;SDS011;12504;52.870;8.798;2023-06-24T02:02:14;24.38;;;13.98;;
24383;SDS011;12504;52.870;8.798;2023-06-24T02:04:42;23.40;;;15.10;;
24383;SDS011;12504;52.870;8.798;2023-06-24T02:07:09;22.33;;;13.43;;
24383;SDS011;12504;52.870;8.798;2023-06-24T02:09:37;25.63;;;13.40;;
24383;SDS011;12504;52.870;8.798;2023-06-24T02:12:04;23.92;;;14.02;;
24383;SDS011;12504;52.870;8.798;2023-06-24T02:14:32;25.65;;;13.48;;
24383;SDS011;12504;52.870;8.798;2023-06-24T02:16:59;21.92;;;13.05;;
24383;SDS011;12504;52.870;8.798;2023-06-24T02:19:31;26.73;;;13.43;;
24383;SDS011;12504;52.870;8.798;2023-06-24T02:21:58;24.60;;;13.38;;
24383;SDS011;12504;52.870;8.798;2023-06-24T02:24:24;23.83;;;14.23;;
24383;SDS011;12504;52.870;8.798;2023-06-24T02:26:53;20.63;;;13.10;;
24383;SDS011;12504;52.870;8.798;2023-06-24T02:29:19;21.58;;;13.65;;
24383;SDS011;12504;52.870;8.798;2023-06-24T02:31:46;20.83;;;14.20;;
24383;SDS011;12504;52.870;8.798;2023-06-24T02:34:12;21.45;;;13.57;;
24383;SDS011;12504;52.870;8.798;2023-06-24T02:36:39;24.10;;;14.70;;
24383;SDS011;12504;52.870;8.798;2023-06-24T02:39:05;21.80;;;13.85;;
24383;SDS011;12504;52.870;8.798;2023-06-24T02:41:30;22.80;;;14.18;;
24383;SDS011;12504;52.870;8.798;2023-06-24T02:43:56;18.92;;;12.73;;
24383;SDS011;12504;52.870;8.798;2023-06-24T02:46:21;23.08;;;14.43;;
24383;SDS011;12504;52.870;8.798;2023-06-24T02:48:48;22.55;;;14.80;;
24383;SDS011;12504;52.870;8.798;2023-06-24T02:51:15;24.70;;;15.43;;
24383;SDS011;12504;52.870;8.798;2023-06-24T02:53:41;30.08;;;14.95;;
24383;SDS011;12504;52.870;8.798;2023-06-24T02:56:11;23.70;;;14.68;;
24383;SDS011;12504;52.870;8.798;2023-06-24T02:58:39;26.37;;;15.97;;
24383;SDS011;12504;52.870;8.798;2023-06-24T03:01:10;26.30;;;16.35;;
24383;SDS011;12504;52.870;8.798;2023-06-24T03:03:45;31.88;;;16.52;;
24383;SDS011;12504;52.870;8.798;2023-06-24T03:06:14;26.67;;;16.52;;
24383;SDS011;12504;52.870;8.798;2023-06-24T03:08:43;28.83;;;16.35;;
24383;SDS011;12504;52.870;8.798;2023-06-24T03:11:12;26.90;;;16.70;;
24383;SDS011;12504;52.870;8.798;2023-06-24T03:13:39;25.83;;;14.65;;
24383;SDS011;12504;52.870;8.798;2023-06-24T03:16:14;29.25;;;15.98;;
24383;SDS011;12504;52.870;8.798;2023-06-24T03:18:47;27.15;;;16.27;;
24383;SDS011;12504;52.870;8.798;2023-06-24T03:21:13;35.88;;;17.73;;
24383;SDS011;12504;52.870;8.798;2023-06-24T03:23:40;28.15;;;16.30;;
24383;SDS011;12504;52.870;8.798;2023-06-24T03:26:08;31.20;;;17.35;;
24383;SDS011;12504;52.870;8.798;2023-06-24T03:28:34;32.42;;;18.30;;
24383;SDS011;12504;52.870;8.798;2023-06-24T03:31:08;27.67;;;17.48;;
24383;SDS011;12504;52.870;8.798;2023-06-24T03:33:34;28.35;;;17.10;;
24383;SDS011;12504;52.870;8.798;2023-06-24T03:35:59;26.40;;;16.48;;
24383;SDS011;12504;52.870;8.798;2023-06-24T03:38:29;28.48;;;16.00;;
24383;SDS011;12504;52.870;8.798;2023-06-24T03:40:56;29.13;;;18.08;;
24383;SDS011;12504;52.870;8.798;2023-06-24T03:43:22;29.70;;;16.92;;
24383;SDS011;12504;52.870;8.798;2023-06-24T03:45:48;30.20;;;17.63;;
24383;SDS011;12504;52.870;8.798;2023-06-24T03:48:14;28.90;;;17.52;;
24383;SDS011;12504;52.870;8.798;2023-06-24T03:50:39;26.63;;;16.23;;
24383;SDS011;12504;52.870;8.798;2023-06-24T03:53:05;34.53;;;18.42;;
24383;SDS011;12504;52.870;8.798;2023-06-24T03:55:32;32.72;;;18.23;;
24383;SDS011;12504;52.870;8.798;2023-06-24T03:57:57;35.47;;;19.15;;
24383;SDS011;12504;52.870;8.798;2023-06-24T04:00:23;27.80;;;17.25;;
24383;SDS011;12504;52.870;8.798;2023-06-24T04:02:50;39.78;;;19.63;;
24383;SDS011;12504;52.870;8.798;2023-06-24T04:05:17;41.03;;;20.42;;
24383;SDS011;12504;52.870;8.798;2023-06-24T04:07:43;32.33;;;18.45;;
24383;SDS011;12504;52.870;8.798;2023-06-24T04:10:12;30.92;;;18.90;;
24383;SDS011;12504;52.870;8.798;2023-06-24T04:12:38;33.72;;;19.60;;
24383;SDS011;12504;52.870;8.798;2023-06-24T04:15:03;33.67;;;17.83;;
24383;SDS011;12504;52.870;8.798;2023-06-24T04:17:32;35.13;;;19.33;;
24383;SDS011;12504;52.870;8.798;2023-06-24T04:19:58;30.58;;;19.08;;
24383;SDS011;12504;52.870;8.798;2023-06-24T04:22:24;35.28;;;21.17;;
24383;SDS011;12504;52.870;8.798;2023-06-24T04:24:55;39.85;;;21.52;;
24383;SDS011;12504;52.870;8.798;2023-06-24T04:27:22;35.75;;;21.95;;
24383;SDS011;12504;52.870;8.798;2023-06-24T04:29:48;39.28;;;22.00;;
24383;SDS011;12504;52.870;8.798;2023-06-24T04:32:13;40.47;;;22.17;;
24383;SDS011;12504;52.870;8.798;2023-06-24T04:34:39;36.47;;;22.45;;
24383;SDS011;12504;52.870;8.798;2023-06-24T04:37:05;43.08;;;24.00;;
24383;SDS011;12504;52.870;8.798;2023-06-24T04:39:31;37.20;;;22.90;;
24383;SDS011;12504;52.870;8.798;2023-06-24T04:41:57;45.03;;;24.50;;
24383;SDS011;12504;52.870;8.798;2023-06-24T04:44:22;41.20;;;23.17;;
24383;SDS011;12504;52.870;8.798;2023-06-24T04:46:48;52.72;;;23.65;;
24383;SDS011;12504;52.870;8.798;2023-06-24T04:49:14;48.15;;;24.67;;
24383;SDS011;12504;52.870;8.798;2023-06-24T04:51:40;38.42;;;23.98;;
24383;SDS011;12504;52.870;8.798;2023-06-24T04:54:06;37.47;;;20.98;;
24383;SDS011;12504;52.870;8.798;2023-06-24T04:56:32;42.13;;;23.75;;
24383;SDS011;12504;52.870;8.798;2023-06-24T04:58:59;37.72;;;21.00;;
24383;SDS011;12504;52.870;8.798;2023-06-24T05:01:25;41.00;;;22.80;;
24383;SDS011;12504;52.870;8.798;2023-06-24T05:03:51;41.58;;;23.08;;
24383;SDS011;12504;52.870;8.798;2023-06-24T05:06:16;41.58;;;22.25;;
24383;SDS011;12504;52.870;8.798;2023-06-24T05:08:42;35.83;;;22.02;;
24383;SDS011;12504;52.870;8.798;2023-06-24T05:11:08;39.75;;;22.17;;
24383;SDS011;12504;52.870;8.798;2023-06-24T05:13:33;44.10;;;23.13;;
24383;SDS011;12504;52.870;8.798;2023-06-24T05:15:59;43.47;;;23.40;;
24383;SDS011;12504;52.870;8.798;2023-06-24T05:18:24;40.97;;;23.90;;
24383;SDS011;12504;52.870;8.798;2023-06-24T05:20:50;34.95;;;21.77;;
24383;SDS011;12504;52.870;8.798;2023-06-24T05:23:15;40.67;;;24.23;;
24383;SDS011;12504;52.870;8.798;2023-06-24T05:25:41;40.40;;;22.45;;
24383;SDS011;12504;52.870;8.798;2023-06-24T05:28:07;31.83;;;19.35;;
24383;SDS011;12504;52.870;8.798;2023-06-24T05:30:32;35.28;;;20.27;;
24383;SDS011;12504;52.870;8.798;2023-06-24T05:32:58;33.65;;;20.80;;
24383;SDS011;12504;52.870;8.798;2023-06-24T05:35:23;41.42;;;21.00;;
24383;SDS011;12504;52.870;8.798;2023-06-24T05:37:49;33.58;;;20.50;;
24383;SDS011;12504;52.870;8.798;2023-06-24T05:40:14;33.63;;;18.80;;
24383;SDS011;12504;52.870;8.798;2023-06-24T05:42:40;47.42;;;22.92;;
24383;SDS011;12504;52.870;8.798;2023-06-24T05:45:06;33.35;;;19.55;;
24383;SDS011;12504;52.870;8.798;2023-06-24T05:47:32;32.25;;;20.10;;
24383;SDS011;12504;52.870;8.798;2023-06-24T05:49:58;34.17;;;19.40;;
24383;SDS011;12504;52.870;8.798;2023-06-24T05:52:24;28.85;;;18.58;;
24383;SDS011;12504;52.870;8.798;2023-06-24T05:54:49;31.73;;;18.70;;
24383;SDS011;12504;52.870;8.798;2023-06-24T05:57:15;30.10;;;17.70;;
24383;SDS011;12504;52.870;8.798;2023-06-24T05:59:41;30.48;;;18.50;;
24383;SDS011;12504;52.870;8.798;2023-06-24T06:02:06;31.65;;;18.00;;
24383;SDS011;12504;52.870;8.798;2023-06-24T06:04:32;35.17;;;17.90;;
24383;SDS011;12504;52.870;8.798;2023-06-24T06:06:58;29.70;;;17.88;;
24383;SDS011;12504;52.870;8.798;2023-06-24T06:09:23;25.77;;;16.55;;
24383;SDS011;12504;52.870;8.798;2023-06-24T06:11:49;29.65;;;16.50;;
24383;SDS011;12504;52.870;8.798;2023-06-24T06:14:14;26.55;;;15.68;;
24383;SDS011;12504;52.870;8.798;2023-06-24T06:16:40;28.27;;;16.60;;
24383;SDS011;12504;52.870;8.798;2023-06-24T06:19:05;23.92;;;15.32;;
24383;SDS011;12504;52.870;8.798;2023-06-24T06:21:31;23.52;;;14.02;;
24383;SDS011;12504;52.870;8.798;2023-06-24T06:23:57;20.83;;;13.13;;
24383;SDS011;12504;52.870;8.798;2023-06-24T06:26:23;22.08;;;13.95;;
24383;SDS011;12504;52.870;8.798;2023-06-24T06:28:49;22.50;;;14.13;;
24383;SDS011;12504;52.870;8.798;2023-06-24T06:31:15;18.73;;;12.27;;
24383;SDS011;12504;52.870;8.798;2023-06-24T06:33:41;25.20;;;14.57;;
24383;SDS011;12504;52.870;8.798;2023-06-24T06:36:07;24.58;;;14.80;;
24383;SDS011;12504;52.870;8.798;2023-06-24T06:38:33;25.85;;;14.30;;
24383;SDS011;12504;52.870;8.798;2023-06-24T06:40:59;21.48;;;12.82;;
24383;SDS011;12504;52.870;8.798;2023-06-24T06:43:25;21.35;;;11.00;;
24383;SDS011;12504;52.870;8.798;2023-06-24T06:45:50;17.52;;;11.35;;
24383;SDS011;12504;52.870;8.798;2023-06-24T06:48:16;21.85;;;11.50;;
24383;SDS011;12504;52.870;8.798;2023-06-24T06:50:41;18.83;;;11.30;;
24383;SDS011;12504;52.870;8.798;2023-06-24T06:53:07;16.38;;;11.68;;
24383;SDS011;12504;52.870;8.798;2023-06-24T06:55:33;14.38;;;9.32;;
24383;SDS011;12504;52.870;8.798;2023-06-24T06:57:58;13.25;;;9.65;;
24383;SDS011;12504;52.870;8.798;2023-06-24T07:00:24;16.48;;;10.45;;
24383;SDS011;12504;52.870;8.798;2023-06-24T07:02:49;15.77;;;10.30;;
24383;SDS011;12504;52.870;8.798;2023-06-24T07:05:15;17.05;;;9.48;;
24383;SDS011;12504;52.870;8.798;2023-06-24T07:07:41;16.55;;;10.30;;
24383;SDS011;12504;52.870;8.798;2023-06-24T07:10:08;14.77;;;9.25;;
24383;SDS011;12504;52.870;8.798;2023-06-24T07:12:34;13.63;;;8.93;;
24383;SDS011;12504;52.870;8.798;2023-06-24T07:15:00;15.63;;;8.45;;
24383;SDS011;12504;52.870;8.798;2023-06-24T07:17:25;10.40;;;6.82;;
24383;SDS011;12504;52.870;8.798;2023-06-24T07:19:51;10.82;;;7.30;;
24383;SDS011;12504;52.870;8.798;2023-06-24T07:22:16;9.93;;;6.75;;
24383;SDS011;12504;52.870;8.798;2023-06-24T07:24:42;11.30;;;6.07;;
24383;SDS011;12504;52.870;8.798;2023-06-24T07:27:08;11.93;;;7.03;;
24383;SDS011;12504;52.870;8.798;2023-06-24T07:29:33;8.90;;;7.07;;
24383;SDS011;12504;52.870;8.798;2023-06-24T07:31:59;11.60;;;7.60;;
24383;SDS011;12504;52.870;8.798;2023-06-24T07:34:24;10.80;;;6.90;;
24383;SDS011;12504;52.870;8.798;2023-06-24T07:36:50;10.07;;;7.22;;
24383;SDS011;12504;52.870;8.798;2023-06-24T07:39:16;13.07;;;7.43;;
24383;SDS011;12504;52.870;8.798;2023-06-24T07:41:42;14.80;;;8.40;;
24383;SDS011;12504;52.870;8.798;2023-06-24T07:44:08;10.73;;;7.10;;
24383;SDS011;12504;52.870;8.798;2023-06-24T07:46:33;13.88;;;8.85;;
24383;SDS011;12504;52.870;8.798;2023-06-24T07:48:59;10.70;;;7.45;;
24383;SDS011;12504;52.870;8.798;2023-06-24T07:51:25;11.00;;;7.68;;
24383;SDS011;12504;52.870;8.798;2023-06-24T07:53:51;13.45;;;8.32;;
24383;SDS011;12504;52.870;8.798;2023-06-24T07:56:17;13.10;;;8.57;;
24383;SDS011;12504;52.870;8.798;2023-06-24T07:58:43;12.05;;;7.18;;
24383;SDS011;12504;52.870;8.798;2023-06-24T08:01:08;9.52;;;7.15;;
24383;SDS011;12504;52.870;8.798;2023-06-24T08:03:34;11.13;;;7.35;;
24383;SDS011;12504;52.870;8.798;2023-06-24T08:06:02;10.20;;;7.13;;
24383;SDS011;12504;52.870;8.798;2023-06-24T08:08:27;8.68;;;6.55;;
24383;SDS011;12504;52.870;8.798;2023-06-24T08:10:53;10.48;;;6.78;;
24383;SDS011;12504;52.870;8.798;2023-06-24T08:13:19;8.63;;;6.65;;
24383;SDS011;12504;52.870;8.798;2023-06-24T08:15:45;9.77;;;7.95;;
24383;SDS011;12504;52.870;8.798;2023-06-24T08:18:10;12.27;;;8.00;;
24383;SDS011;12504;52.870;8.798;2023-06-24T08:20:36;9.05;;;6.60;;
24383;SDS011;12504;52.870;8.798;2023-06-24T08:23:01;9.68;;;6.38;;
24383;SDS011;12504;52.870;8.798;2023-06-24T08:25:27;8.73;;;6.63;;
24383;SDS011;12504;52.870;8.798;2023-06-24T08:27:53;10.10;;;6.15;;
24383;SDS011;12504;52.870;8.798;2023-06-24T08:30:18;8.93;;;5.85;;
24383;SDS011;12504;52.870;8.798;2023-06-24T08:32:44;8.60;;;5.85;;
24383;SDS011;12504;52.870;8.798;2023-06-24T08:35:10;7.65;;;6.35;;
24383;SDS011;12504;52.870;8.798;2023-06-24T08:37:36;9.52;;;5.45;;
24383;SDS011;12504;52.870;8.798;2023-06-24T08:40:03;7.60;;;5.38;;
24383;SDS011;12504;52.870;8.798;2023-06-24T08:44:58;8.10;;;6.45;;
24383;SDS011;12504;52.870;8.798;2023-06-24T08:47:24;5.82;;;4.90;;
24383;SDS011;12504;52.870;8.798;2023-06-24T08:49:53;8.52;;;6.38;;
24383;SDS011;12504;52.870;8.798;2023-06-24T08:52:26;7.90;;;6.07;;
24383;SDS011;12504;52.870;8.798;2023-06-24T08:54:55;7.68;;;5.68;;
24383;SDS011;12504;52.870;8.798;2023-06-24T08:57:23;9.02;;;5.93;;
24383;SDS011;12504;52.870;8.798;2023-06-24T08:59:49;7.88;;;5.30;;
24383;SDS011;12504;52.870;8.798;2023-06-24T09:02:14;7.85;;;5.22;;
24383;SDS011;12504;52.870;8.798;2023-06-24T09:04:40;6.78;;;5.22;;
24383;SDS011;12504;52.870;8.798;2023-06-24T09:07:06;8.18;;;5.15;;
24383;SDS011;12504;52.870;8.798;2023-06-24T09:09:31;6.72;;;4.55;;
24383;SDS011;12504;52.870;8.798;2023-06-24T09:12:00;7.80;;;5.03;;
24383;SDS011;12504;52.870;8.798;2023-06-24T09:14:28;8.30;;;5.25;;
24383;SDS011;12504;52.870;8.798;2023-06-24T09:16:55;8.70;;;5.70;;
24383;SDS011;12504;52.870;8.798;2023-06-24T09:19:29;8.90;;;5.43;;
24383;SDS011;12504;52.870;8.798;2023-06-24T09:21:55;6.18;;;5.05;;
24383;SDS011;12504;52.870;8.798;2023-06-24T09:24:32;8.45;;;6.03;;
24383;SDS011;12504;52.870;8.798;2023-06-24T09:26:58;9.00;;;5.82;;
24383;SDS011;12504;52.870;8.798;2023-06-24T09:29:29;11.07;;;5.72;;
24383;SDS011;12504;52.870;8.798;2023-06-24T09:31:57;5.88;;;5.28;;
24383;SDS011;12504;52.870;8.798;2023-06-24T09:34:24;8.43;;;5.75;;
24383;SDS011;12504;52.870;8.798;2023-06-24T09:36:52;10.40;;;6.00;;
24383;SDS011;12504;52.870;8.798;2023-06-24T09:39:19;8.23;;;5.55;;
24383;SDS011;12504;52.870;8.798;2023-06-24T09:41:49;8.30;;;5.43;;
24383;SDS011;12504;52.870;8.798;2023-06-24T09:44:16;10.85;;;5.65;;
24383;SDS011;12504;52.870;8.798;2023-06-24T09:46:44;8.98;;;5.95;;
24383;SDS011;12504;52.870;8.798;2023-06-24T09:49:10;8.85;;;5.30;;
24383;SDS011;12504;52.870;8.798;2023-06-24T09:51:39;8.82;;;5.05;;
24383;SDS011;12504;52.870;8.798;2023-06-24T09:54:08;9.15;;;6.22;;
24383;SDS011;12504;52.870;8.798;2023-06-24T09:56:35;8.20;;;6.38;;
24383;SDS011;12504;52.870;8.798;2023-06-24T09:59:03;9.52;;;6.40;;
24383;SDS011;12504;52.870;8.798;2023-06-24T10:01:30;9.70;;;6.38;;
24383;SDS011;12504;52.870;8.798;2023-06-24T10:04:06;8.55;;;7.05;;
24383;SDS011;12504;52.870;8.798;2023-06-24T10:06:33;7.70;;;5.90;;
24383;SDS011;12504;52.870;8.798;2023-06-24T10:09:00;9.93;;;5.82;;
24383;SDS011;12504;52.870;8.798;2023-06-24T10:11:26;8.73;;;6.20;;
24383;SDS011;12504;52.870;8.798;2023-06-24T10:13:52;9.18;;;6.45;;
24383;SDS011;12504;52.870;8.798;2023-06-24T10:16:18;9.25;;;5.70;;
24383;SDS011;12504;52.870;8.798;2023-06-24T10:18:44;9.48;;;6.47;;
24383;SDS011;12504;52.870;8.798;2023-06-24T10:21:10;8.02;;;6.30;;
24383;SDS011;12504;52.870;8.798;2023-06-24T10:26:21;10.15;;;6.15;;
24383;SDS011;12504;52.870;8.798;2023-06-24T10:42:47;9.23;;;7.38;;
24383;SDS011;12504;52.870;8.798;2023-06-24T10:45:00;9.82;;;6.03;;
24383;SDS011;12504;52.870;8.798;2023-06-24T10:50:05;6.15;;;5.07;;
24383;SDS011;12504;52.870;8.798;2023-06-24T10:52:32;10.18;;;7.38;;
24383;SDS011;12504;52.870;8.798;2023-06-24T10:55:03;9.23;;;7.30;;
24383;SDS011;12504;52.870;8.798;2023-06-24T10:57:29;8.27;;;6.22;;
24383;SDS011;12504;52.870;8.798;2023-06-24T10:59:55;8.60;;;6.30;;
24383;SDS011;12504;52.870;8.798;2023-06-24T11:02:23;13.05;;;6.63;;
24383;SDS011;12504;52.870;8.798;2023-06-24T11:04:50;7.63;;;6.32;;
24383;SDS011;12504;52.870;8.798;2023-06-24T11:07:18;8.50;;;7.07;;
24383;SDS011;12504;52.870;8.798;2023-06-24T11:09:48;9.57;;;6.38;;
24383;SDS011;12504;52.870;8.798;2023-06-24T11:12:25;9.98;;;6.65;;
24383;SDS011;12504;52.870;8.798;2023-06-24T11:14:55;6.35;;;5.72;;
24383;SDS011;12504;52.870;8.798;2023-06-24T11:17:26;7.88;;;5.88;;
24383;SDS011;12504;52.870;8.798;2023-06-24T11:19:52;7.35;;;5.35;;
24383;SDS011;12504;52.870;8.798;2023-06-24T11:22:19;8.90;;;5.85;;
24383;SDS011;12504;52.870;8.798;2023-06-24T11:24:45;9.73;;;5.65;;
24383;SDS011;12504;52.870;8.798;2023-06-24T11:27:10;9.48;;;6.78;;
24383;SDS011;12504;52.870;8.798;2023-06-24T11:29:36;8.00;;;5.47;;
24383;SDS011;12504;52.870;8.798;2023-06-24T11:32:02;7.28;;;5.93;;
24383;SDS011;12504;52.870;8.798;2023-06-24T11:34:29;9.63;;;6.43;;
24383;SDS011;12504;52.870;8.798;2023-06-24T11:36:54;7.95;;;6.72;;
24383;SDS011;12504;52.870;8.798;2023-06-24T11:39:27;10.32;;;6.72;;
24383;SDS011;12504;52.870;8.798;2023-06-24T11:41:53;8.77;;;6.63;;
24383;SDS011;12504;52.870;8.798;2023-06-24T11:44:25;12.40;;;6.68;;
24383;SDS011;12504;52.870;8.798;2023-06-24T11:46:51;9.13;;;6.32;;
24383;SDS011;12504;52.870;8.798;2023-06-24T11:49:17;10.23;;;6.45;;
24383;SDS011;12504;52.870;8.798;2023-06-24T11:51:47;7.95;;;5.75;;
24383;SDS011;12504;52.870;8.798;2023-06-24T11:54:15;6.85;;;5.75;;
24383;SDS011;12504;52.870;8.798;2023-06-24T11:56:42;5.95;;;5.35;;
24383;SDS011;12504;52.870;8.798;2023-06-24T11:59:19;8.07;;;5.80;;
24383;SDS011;12504;52.870;8.798;2023-06-24T12:01:45;7.13;;;5.07;;
24383;SDS011;12504;52.870;8.798;2023-06-24T12:04:18;7.25;;;5.22;;
24383;SDS011;12504;52.870;8.798;2023-06-24T12:06:44;9.52;;;6.38;;
24383;SDS011;12504;52.870;8.798;2023-06-24T12:09:10;8.35;;;6.63;;
24383;SDS011;12504;52.870;8.798;2023-06-24T12:11:35;8.07;;;5.85;;
24383;SDS011;12504;52.870;8.798;2023-06-24T12:14:02;8.02;;;5.90;;
24383;SDS011;12504;52.870;8.798;2023-06-24T12:16:28;8.25;;;5.55;;
24383;SDS011;12504;52.870;8.798;2023-06-24T12:18:54;8.63;;;6.43;;
24383;SDS011;12504;52.870;8.798;2023-06-24T12:21:20;7.30;;;5.30;;
24383;SDS011;12504;52.870;8.798;2023-06-24T12:23:46;7.63;;;5.15;;
24383;SDS011;12504;52.870;8.798;2023-06-24T12:26:12;6.75;;;5.20;;
24383;SDS011;12504;52.870;8.798;2023-06-24T12:28:38;6.28;;;4.85;;
24383;SDS011;12504;52.870;8.798;2023-06-24T12:31:03;7.88;;;5.28;;
24383;SDS011;12504;52.870;8.798;2023-06-24T12:33:32;5.57;;;5.03;;
24383;SDS011;12504;52.870;8.798;2023-06-24T12:35:58;6.38;;;5.40;;
24383;SDS011;12504;52.870;8.798;2023-06-24T12:38:24;8.13;;;4.90;;
24383;SDS011;12504;52.870;8.798;2023-06-24T12:40:50;7.13;;;5.00;;
24383;SDS011;12504;52.870;8.798;2023-06-24T12:43:17;6.88;;;5.70;;
24383;SDS011;12504;52.870;8.798;2023-06-24T12:45:43;6.28;;;5.60;;
24383;SDS011;12504;52.870;8.798;2023-06-24T12:48:09;6.32;;;5.35;;
24383;SDS011;12504;52.870;8.798;2023-06-24T12:50:35;8.38;;;5.63;;
24383;SDS011;12504;52.870;8.798;2023-06-24T12:53:01;6.07;;;4.82;;
24383;SDS011;12504;52.870;8.798;2023-06-24T12:55:28;5.40;;;4.85;;
24383;SDS011;12504;52.870;8.798;2023-06-24T12:57:54;6.38;;;5.43;;
24383;SDS011;12504;52.870;8.798;2023-06-24T13:00:20;6.00;;;5.13;;
24383;SDS011;12504;52.870;8.798;2023-06-24T13:02:47;6.40;;;5.78;;
24383;SDS011;12504;52.870;8.798;2023-06-24T13:05:13;6.00;;;5.40;;
24383;SDS011;12504;52.870;8.798;2023-06-24T13:07:39;5.93;;;4.97;;
24383;SDS011;12504;52.870;8.798;2023-06-24T13:10:05;5.07;;;4.57;;
24383;SDS011;12504;52.870;8.798;2023-06-24T13:12:34;6.22;;;5.63;;
24383;SDS011;12504;52.870;8.798;2023-06-24T13:15:00;9.73;;;6.32;;
24383;SDS011;12504;52.870;8.798;2023-06-24T13:17:29;6.53;;;5.50;;
24383;SDS011;12504;52.870;8.798;2023-06-24T13:19:55;6.38;;;5.78;;
24383;SDS011;12504;52.870;8.798;2023-06-24T13:22:21;6.43;;;5.78;;
24383;SDS011;12504;52.870;8.798;2023-06-24T13:24:47;7.78;;;5.82;;
24383;SDS011;12504;52.870;8.798;2023-06-24T13:27:12;9.07;;;5.35;;
24383;SDS011;12504;52.870;8.798;2023-06-24T13:29:38;7.32;;;5.20;;
24383;SDS011;12504;52.870;8.798;2023-06-24T13:32:04;6.53;;;5.53;;
24383;SDS011;12504;52.870;8.798;2023-06-24T13:34:30;7.57;;;4.90;;
24383;SDS011;12504;52.870;8.798;2023-06-24T13:36:55;8.82;;;6.22;;
24383;SDS011;12504;52.870;8.798;2023-06-24T13:39:21;9.13;;;6.10;;
24383;SDS011;12504;52.870;8.798;2023-06-24T13:41:50;8.07;;;5.78;;
24383;SDS011;12504;52.870;8.798;2023-06-24T13:44:17;6.20;;;5.60;;
24383;SDS011;12504;52.870;8.798;2023-06-24T13:46:43;7.50;;;5.88;;
24383;SDS011;12504;52.870;8.798;2023-06-24T13:49:09;8.13;;;6.57;;
24383;SDS011;12504;52.870;8.798;2023-06-24T13:51:35;6.18;;;5.57;;
24383;SDS011;12504;52.870;8.798;2023-06-24T13:54:01;5.60;;;5.10;;
24383;SDS011;12504;52.870;8.798;2023-06-24T13:56:27;7.78;;;6.60;;
24383;SDS011;12504;52.870;8.798;2023-06-24T13:58:53;7.57;;;6.88;;
24383;SDS011;12504;52.870;8.798;2023-06-24T14:01:20;7.28;;;6.43;;
24383;SDS011;12504;52.870;8.798;2023-06-24T14:03:46;7.40;;;5.95;;
24383;SDS011;12504;52.870;8.798;2023-06-24T14:06:16;7.93;;;6.47;;
24383;SDS011;12504;52.870;8.798;2023-06-24T14:08:43;7.75;;;6.88;;
24383;SDS011;12504;52.870;8.798;2023-06-24T14:11:09;7.57;;;6.75;;
24383;SDS011;12504;52.870;8.798;2023-06-24T14:13:35;8.77;;;7.35;;
24383;SDS011;12504;52.870;8.798;2023-06-24T14:16:01;9.25;;;8.30;;
24383;SDS011;12504;52.870;8.798;2023-06-24T14:18:27;9.43;;;8.52;;
24383;SDS011;12504;52.870;8.798;2023-06-24T14:20:56;10.02;;;8.18;;
24383;SDS011;12504;52.870;8.798;2023-06-24T14:23:23;9.68;;;8.68;;
24383;SDS011;12504;52.870;8.798;2023-06-24T14:25:50;9.82;;;8.82;;
24383;SDS011;12504;52.870;8.798;2023-06-24T14:28:16;9.80;;;8.80;;
24383;SDS011;12504;52.870;8.798;2023-06-24T14:30:42;10.38;;;9.40;;
24383;SDS011;12504;52.870;8.798;2023-06-24T14:33:07;10.13;;;8.32;;
24383;SDS011;12504;52.870;8.798;2023-06-24T14:35:33;9.77;;;8.52;;
24383;SDS011;12504;52.870;8.798;2023-06-24T14:37:58;10.40;;;9.30;;
24383;SDS011;12504;52.870;8.798;2023-06-24T14:40:24;10.00;;;9.02;;
24383;SDS011;12504;52.870;8.798;2023-06-24T14:42:50;10.57;;;9.45;;
24383;SDS011;12504;52.870;8.798;2023-06-24T14:45:15;8.95;;;8.10;;
24383;SDS011;12504;52.870;8.798;2023-06-24T14:47:41;8.95;;;8.15;;
24383;SDS011;12504;52.870;8.798;2023-06-24T14:50:06;8.75;;;7.60;;
24383;SDS011;12504;52.870;8.798;2023-06-24T14:52:32;8.45;;;7.28;;
24383;SDS011;12504;52.870;8.798;2023-06-24T14:54:58;9.25;;;8.43;;
24383;SDS011;12504;52.870;8.798;2023-06-24T14:57:23;9.52;;;8.65;;
24383;SDS011;12504;52.870;8.798;2023-06-24T14:59:50;8.70;;;7.88;;
24383;SDS011;12504;52.870;8.798;2023-06-24T15:02:16;9.05;;;8.18;;
24383;SDS011;12504;52.870;8.798;2023-06-24T15:04:42;14.38;;;9.40;;